Terminal Aerodrome Forecast
Issued by NWS

Home | Current Version | Previous Version | Text Only | Print | Product List | Glossary On
Versions: 1 2 3 4 5 6 7 8 9 10 11 12
146
FTUS45 KTFX 271720
TAFHVR
TAF
KHVR 271720Z 2718/2818 VRB04KT P6SM FEW250
     FM272200 10006KT P6SM FEW080 FEW150=

USA.gov is the U.S. government's official web portal to all federal, state and local government web resources and services.